Time;durP1;ratioP1;P1;durP2;ratioP2;P2;SDS_P1;SDS_P2;PMS_P1;PMS_P2;Temp;Humidity;BMP_temperature;BMP_pressure;BME280_temperature;BME280_humidity;BME280_pressure;Samples;Min_cycle;Max_cycle;Signal;HPM_P1;HPM_P2
2023/10/20 00:01:46;;;;;;;7.07;4.85;;;12.00;99.90;;;;;;5104731;28;20541;-59
2023/10/20 00:04:12;;;;;;;8.25;4.97;;;12.00;99.90;;;;;;5105258;28;20124;-60
2023/10/20 00:06:39;;;;;;;10.27;5.13;;;12.00;99.90;;;;;;5112673;28;20484;-59
2023/10/20 00:09:06;;;;;;;11.48;5.75;;;12.00;99.90;;;;;;5105793;28;20480;-60
2023/10/20 00:11:33;;;;;;;13.05;6.45;;;12.00;99.90;;;;;;5113047;28;20039;-56
2023/10/20 00:14:00;;;;;;;8.95;6.18;;;12.00;99.90;;;;;;5111542;28;20046;-60
2023/10/20 00:16:28;;;;;;;10.68;6.07;;;12.00;99.90;;;;;;5112885;28;20042;-59
2023/10/20 00:18:56;;;;;;;9.13;4.93;;;12.10;99.90;;;;;;5110211;28;20412;-61
2023/10/20 00:21:24;;;;;;;10.82;5.05;;;12.00;99.90;;;;;;5112879;28;20071;-59
2023/10/20 00:23:51;;;;;;;9.15;4.70;;;11.90;99.90;;;;;;5107543;28;20373;-60
2023/10/20 00:26:18;;;;;;;8.48;4.97;;;11.80;99.90;;;;;;5112334;28;20443;-60
2023/10/20 00:28:49;;;;;;;8.55;5.18;;;11.80;99.90;;;;;;5111170;28;20050;-60
2023/10/20 00:31:16;;;;;;;11.13;4.95;;;11.80;99.90;;;;;;5102556;28;20043;-59
2023/10/20 00:33:45;;;;;;;6.63;4.50;;;11.80;99.90;;;;;;5110566;28;20146;-60
2023/10/20 00:36:12;;;;;;;8.07;5.20;;;11.80;99.90;;;;;;5110614;28;20044;-59
2023/10/20 00:38:39;;;;;;;9.75;5.55;;;11.70;99.90;;;;;;5110522;28;20051;-58
2023/10/20 00:41:06;;;;;;;10.10;5.20;;;11.70;99.90;;;;;;5110443;28;20119;-60
2023/10/20 00:43:35;;;;;;;8.93;5.32;;;11.80;99.90;;;;;;5102279;28;20067;-60
2023/10/20 00:46:07;;;;;;;10.10;5.63;;;11.80;99.90;;;;;;5111537;28;20044;-58
2023/10/20 00:48:37;;;;;;;9.48;5.20;;;11.90;99.90;;;;;;5106753;28;20058;-59
2023/10/20 00:51:05;;;;;;;13.65;6.00;;;11.90;99.90;;;;;;5106700;28;20130;-60
2023/10/20 00:53:34;;;;;;;8.82;4.95;;;11.90;99.90;;;;;;5102109;28;20050;-59
2023/10/20 00:56:04;;;;;;;8.60;4.32;;;11.90;99.90;;;;;;5111583;28;20395;-59
2023/10/20 00:58:31;;;;;;;9.85;4.53;;;11.90;99.90;;;;;;5107331;28;20667;-58
2023/10/20 01:00:58;;;;;;;10.05;4.20;;;12.00;99.90;;;;;;5109184;28;20054;-58
2023/10/20 01:03:25;;;;;;;9.23;4.82;;;12.00;99.90;;;;;;5109992;28;20568;-60
2023/10/20 01:05:52;;;;;;;;;;;12.00;99.90;;;;;;5110763;28;20067;-59
2023/10/20 01:08:19;;;;;;;11.73;5.35;;;12.00;99.90;;;;;;5111413;28;19924;-59
2023/10/20 01:10:46;;;;;;;9.98;4.50;;;12.00;99.90;;;;;;5109348;28;20048;-60
2023/10/20 01:13:13;;;;;;;;;;;12.00;99.90;;;;;;5105611;28;20533;-58
2023/10/20 01:15:41;;;;;;;9.70;5.22;;;12.00;99.90;;;;;;5112239;28;19942;-60
2023/10/20 01:18:09;;;;;;;12.48;6.88;;;12.00;99.90;;;;;;5093693;28;20044;-57
2023/10/20 01:20:38;;;;;;;11.48;6.90;;;12.00;99.90;;;;;;5102319;28;20476;-57
2023/10/20 01:23:05;;;;;;;13.63;7.32;;;12.00;99.90;;;;;;5101309;28;20404;-58
2023/10/20 01:25:32;;;;;;;11.27;7.50;;;12.00;99.90;;;;;;5106103;28;20044;-57
2023/10/20 01:27:59;;;;;;;14.20;7.30;;;11.90;99.90;;;;;;5110320;28;20053;-59
2023/10/20 01:30:26;;;;;;;9.82;5.63;;;12.00;99.90;;;;;;5109309;28;20039;-60
2023/10/20 01:32:53;;;;;;;9.70;5.93;;;11.90;99.90;;;;;;5108570;28;20092;-58
2023/10/20 01:35:20;;;;;;;14.02;6.63;;;12.00;99.90;;;;;;5110332;28;20418;-60
2023/10/20 01:37:47;;;;;;;11.77;6.50;;;12.00;99.90;;;;;;5111497;28;20510;-58
2023/10/20 01:40:15;;;;;;;9.10;6.00;;;12.00;99.90;;;;;;5109712;28;20050;-59
2023/10/20 01:42:42;;;;;;;11.65;7.00;;;12.00;99.90;;;;;;5110111;28;20563;-60
2023/10/20 01:45:09;;;;;;;13.77;7.38;;;12.00;99.90;;;;;;5108067;28;20139;-59
2023/10/20 01:47:37;;;;;;;13.05;8.02;;;11.90;99.90;;;;;;5091204;28;20058;-60
2023/10/20 01:50:04;;;;;;;12.13;7.60;;;11.80;99.90;;;;;;5105409;28;20056;-60
2023/10/20 01:52:32;;;;;;;12.27;7.32;;;11.80;99.90;;;;;;5090761;28;20043;-60
2023/10/20 01:54:59;;;;;;;11.85;6.30;;;11.70;99.90;;;;;;5101216;28;20135;-60
2023/10/20 01:57:26;;;;;;;;;;;11.70;99.90;;;;;;5114538;28;20049;-60
2023/10/20 01:59:52;;;;;;;12.75;5.97;;;11.70;99.90;;;;;;5105352;28;19919;-59
2023/10/20 02:02:19;;;;;;;9.70;5.03;;;11.70;99.90;;;;;;5109757;28;20055;-60
2023/10/20 02:04:46;;;;;;;8.93;4.78;;;11.70;99.90;;;;;;5101650;28;20052;-60
2023/10/20 02:07:13;;;;;;;10.63;4.57;;;11.70;99.90;;;;;;5115498;28;20432;-59
2023/10/20 02:09:40;;;;;;;8.77;4.43;;;11.80;99.90;;;;;;5115218;28;20067;-60
2023/10/20 02:12:07;;;;;;;5.75;3.90;;;11.80;99.90;;;;;;5101894;28;20095;-60
2023/10/20 02:14:34;;;;;;;10.40;4.25;;;11.80;99.90;;;;;;5108467;28;20044;-60
2023/10/20 02:17:02;;;;;;;6.93;4.00;;;11.80;99.90;;;;;;5104169;28;20044;-59
2023/10/20 02:19:29;;;;;;;6.45;4.03;;;11.90;99.90;;;;;;5113450;28;20078;-60
2023/10/20 02:21:55;;;;;;;8.88;3.63;;;11.90;99.90;;;;;;5112793;28;20112;-60
2023/10/20 02:24:22;;;;;;;10.15;4.40;;;11.90;99.90;;;;;;5114614;28;20036;-59
2023/10/20 02:26:50;;;;;;;8.38;4.50;;;11.90;99.90;;;;;;5100043;28;20051;-60
2023/10/20 02:29:17;;;;;;;7.25;4.20;;;11.90;99.90;;;;;;5113700;28;20043;-60
2023/10/20 02:31:44;;;;;;;10.32;5.70;;;11.80;99.90;;;;;;5104849;28;20051;-59
2023/10/20 02:34:11;;;;;;;8.82;4.25;;;11.90;99.90;;;;;;5111827;28;20070;-60
2023/10/20 02:36:38;;;;;;;;;;;11.90;99.90;;;;;;5104621;28;20044;-60
2023/10/20 02:39:05;;;;;;;9.73;5.80;;;11.90;99.90;;;;;;5114407;28;19976;-59
2023/10/20 02:41:32;;;;;;;8.98;5.20;;;12.00;99.90;;;;;;5104290;28;20130;-60
2023/10/20 02:43:59;;;;;;;11.63;4.40;;;12.00;99.90;;;;;;5103544;28;20047;-60
2023/10/20 02:46:26;;;;;;;8.05;4.20;;;11.90;99.90;;;;;;5112796;28;20051;-60
2023/10/20 02:48:53;;;;;;;7.32;3.72;;;12.00;99.90;;;;;;5111251;28;20042;-59
2023/10/20 02:51:20;;;;;;;4.75;3.28;;;12.00;99.90;;;;;;5109385;28;20036;-60
2023/10/20 02:53:47;;;;;;;8.48;5.05;;;12.00;99.90;;;;;;5108990;28;20388;-60
2023/10/20 02:56:19;;;;;;;16.55;5.50;;;12.00;99.90;;;;;;5113828;28;20399;-60
2023/10/20 02:58:47;;;;;;;8.02;4.40;;;12.00;99.90;;;;;;5104375;28;20145;-60
2023/10/20 03:01:15;;;;;;;9.20;4.50;;;11.90;99.90;;;;;;5098710;28;20071;-60
2023/10/20 03:03:43;;;;;;;7.90;5.00;;;11.80;99.90;;;;;;5113963;28;20027;-60
2023/10/20 03:06:11;;;;;;;8.18;4.30;;;11.80;99.90;;;;;;5112993;28;20040;-60
2023/10/20 03:08:39;;;;;;;9.55;4.85;;;11.80;99.90;;;;;;5111450;28;20091;-60
2023/10/20 03:11:08;;;;;;;7.45;5.25;;;11.80;99.90;;;;;;5096088;28;20131;-59
2023/10/20 03:13:35;;;;;;;9.43;5.22;;;11.80;99.90;;;;;;5086167;28;20412;-60
2023/10/20 03:16:02;;;;;;;11.18;5.72;;;11.80;99.90;;;;;;5110288;28;20130;-61
2023/10/20 03:18:29;;;;;;;8.38;5.28;;;11.80;99.90;;;;;;5102232;28;20035;-59
2023/10/20 03:21:02;;;;;;;8.63;5.30;;;11.80;99.90;;;;;;5109503;28;20047;-59
2023/10/20 03:23:30;;;;;;;8.75;5.35;;;11.80;99.90;;;;;;5113502;28;20512;-60
2023/10/20 03:25:57;;;;;;;7.78;4.38;;;11.80;99.90;;;;;;5109780;28;20530;-61
2023/10/20 03:28:25;;;;;;;6.05;4.00;;;11.80;99.90;;;;;;5108645;28;20074;-60
2023/10/20 03:30:53;;;;;;;6.15;3.40;;;11.90;99.90;;;;;;5112239;28;20066;-60
2023/10/20 03:33:21;;;;;;;7.90;4.32;;;11.90;99.90;;;;;;5105189;28;20053;-60
2023/10/20 03:35:48;;;;;;;19.00;8.10;;;11.90;99.90;;;;;;5112459;28;20055;-59
2023/10/20 03:38:15;;;;;;;10.10;5.28;;;11.80;99.90;;;;;;5103053;28;20130;-59
2023/10/20 03:40:42;;;;;;;11.60;5.32;;;11.80;99.90;;;;;;5113676;28;20048;-60
2023/10/20 03:43:10;;;;;;;10.70;6.22;;;11.60;99.90;;;;;;5106805;28;20504;-60
2023/10/20 03:45:41;;;;;;;10.73;5.95;;;11.60;99.90;;;;;;5110249;28;20213;-60
2023/10/20 03:48:09;;;;;;;9.27;6.00;;;11.50;99.90;;;;;;5095858;28;20094;-59
2023/10/20 03:50:38;;;;;;;10.35;6.60;;;11.50;99.90;;;;;;5102493;28;20039;-60
2023/10/20 03:53:06;;;;;;;13.60;6.10;;;11.40;99.90;;;;;;5095079;28;20044;-61
2023/10/20 03:55:36;;;;;;;13.13;7.22;;;11.40;99.90;;;;;;5098558;28;20042;-60
2023/10/20 03:58:03;;;;;;;9.73;6.63;;;11.40;99.90;;;;;;5092402;28;20043;-59
2023/10/20 04:00:31;;;;;;;13.45;6.68;;;11.40;99.90;;;;;;5105065;28;20044;-59
2023/10/20 04:02:58;;;;;;;16.10;6.65;;;11.40;99.90;;;;;;5112873;28;20051;-60
2023/10/20 04:05:26;;;;;;;9.40;5.53;;;11.40;99.90;;;;;;5112072;28;20706;-60
2023/10/20 04:07:53;;;;;;;9.68;4.80;;;11.40;99.90;;;;;;5113239;28;20043;-60
2023/10/20 04:10:20;;;;;;;7.40;4.30;;;11.40;99.90;;;;;;5113237;28;20063;-60
2023/10/20 04:12:47;;;;;;;6.63;4.03;;;11.50;99.90;;;;;;5107727;28;20078;-59
2023/10/20 04:15:19;;;;;;;;;;;11.60;99.90;;;;;;5112072;28;20492;-59
2023/10/20 04:17:56;;;;;;;5.78;3.50;;;11.50;99.90;;;;;;5112362;28;19958;-59
2023/10/20 04:20:23;;;;;;;7.32;3.40;;;11.60;99.90;;;;;;5112692;28;20047;-60
2023/10/20 04:22:51;;;;;;;4.53;3.03;;;11.70;99.90;;;;;;5105489;28;20031;-59
2023/10/20 04:25:19;;;;;;;7.88;2.85;;;11.80;99.90;;;;;;5112820;28;20096;-60
2023/10/20 04:28:03;;;;;;;7.35;2.75;;;11.80;99.90;;;;;;5112053;28;20065;-59
2023/10/20 04:47:40;;;;;;;11.55;6.45;;;11.70;99.90;;;;;;5112284;28;20608;-59
2023/10/20 04:58:18;;;;;;;16.77;8.65;;;11.70;99.90;;;;;;5098286;28;20082;-60
2023/10/20 05:00:45;;;;;;;17.25;8.40;;;11.70;99.90;;;;;;5101028;28;20130;-60
2023/10/20 05:06:22;;;;;;;12.60;7.55;;;11.70;99.90;;;;;;5068369;28;20125;-59
2023/10/20 05:08:50;;;;;;;11.98;6.63;;;11.70;99.90;;;;;;5111329;28;20062;-61
2023/10/20 05:11:17;;;;;;;13.32;7.40;;;11.70;99.90;;;;;;5103611;28;20043;-60
2023/10/20 05:13:44;;;;;;;13.07;7.15;;;11.70;99.90;;;;;;5111914;28;20469;-58
2023/10/20 05:16:11;;;;;;;14.77;7.90;;;11.70;99.90;;;;;;5111186;28;20043;-59
2023/10/20 05:18:45;;;;;;;15.48;8.43;;;11.60;99.90;;;;;;5110104;28;20058;-60
2023/10/20 05:21:12;;;;;;;15.15;8.27;;;11.60;99.90;;;;;;5111568;28;20479;-60
2023/10/20 05:23:40;;;;;;;14.13;8.52;;;11.60;99.90;;;;;;5107879;28;20031;-59
2023/10/20 05:26:09;;;;;;;14.77;7.40;;;11.60;99.90;;;;;;5108309;28;20047;-59
2023/10/20 05:28:36;;;;;;;11.70;8.02;;;11.60;99.90;;;;;;5108816;28;20131;-60
2023/10/20 05:31:03;;;;;;;11.60;7.38;;;11.60;99.90;;;;;;5104778;28;20050;-60
2023/10/20 05:33:30;;;;;;;12.93;7.30;;;11.70;99.90;;;;;;5106436;28;20078;-60
2023/10/20 05:36:02;;;;;;;13.13;7.82;;;11.70;99.90;;;;;;5101711;28;20045;-60
2023/10/20 05:38:28;;;;;;;14.38;7.97;;;11.80;99.90;;;;;;5103969;28;20036;-59
2023/10/20 05:40:58;;;;;;;19.60;8.70;;;11.70;99.90;;;;;;5103895;28;20035;-60
2023/10/20 05:43:25;;;;;;;16.00;8.10;;;11.70;99.90;;;;;;5104839;28;20036;-60
2023/10/20 05:45:53;;;;;;;16.67;7.65;;;11.70;99.90;;;;;;5104494;28;20040;-60
2023/10/20 05:48:20;;;;;;;16.13;7.70;;;11.70;99.90;;;;;;5103256;28;20518;-60
2023/10/20 05:50:47;;;;;;;13.45;7.35;;;11.70;99.90;;;;;;5101926;28;20048;-60
2023/10/20 05:53:14;;;;;;;15.95;8.43;;;11.70;99.90;;;;;;5102503;28;20039;-60
2023/10/20 05:55:41;;;;;;;14.35;8.07;;;11.60;99.90;;;;;;5106888;28;20128;-59
2023/10/20 05:58:08;;;;;;;14.00;8.10;;;11.70;99.90;;;;;;5105848;28;20411;-60
2023/10/20 06:00:36;;;;;;;11.52;7.95;;;11.70;99.90;;;;;;5101438;28;20055;-60
2023/10/20 06:03:24;;;;;;;16.73;7.10;;;11.70;99.90;;;;;;5103726;28;20032;-60
2023/10/20 06:05:51;;;;;;;18.60;8.32;;;11.80;99.90;;;;;;5108117;28;20047;-59
2023/10/20 06:08:18;;;;;;;12.88;7.70;;;11.80;99.90;;;;;;5100409;28;20055;-60
2023/10/20 06:10:46;;;;;;;14.05;7.72;;;11.80;99.90;;;;;;5100989;28;20562;-61
2023/10/20 06:13:13;;;;;;;15.88;7.35;;;11.70;99.90;;;;;;5110949;28;20051;-60
2023/10/20 06:15:40;;;;;;;13.68;7.93;;;11.60;99.90;;;;;;5106019;28;20066;-60
2023/10/20 06:18:07;;;;;;;14.35;8.65;;;11.60;99.90;;;;;;5109331;28;20792;-60
2023/10/20 06:20:41;;;;;;;13.20;7.40;;;11.60;99.90;;;;;;5115355;28;20441;-60
2023/10/20 06:23:08;;;;;;;14.48;7.25;;;11.60;99.90;;;;;;5114691;28;20035;-60
2023/10/20 06:25:35;;;;;;;11.90;6.50;;;11.70;99.90;;;;;;5115316;28;20035;-60
2023/10/20 06:28:04;;;;;;;;;;;11.80;99.90;;;;;;5109978;28;20043;-60
2023/10/20 06:30:31;;;;;;;;;;;11.80;99.90;;;;;;5115121;28;19938;-60
2023/10/20 06:35:50;;;;;;;13.93;5.82;;;11.90;99.90;;;;;;5109601;28;20055;-61
2023/10/20 06:38:31;;;;;;;10.30;6.75;;;11.80;99.90;;;;;;5095689;27;20072;-60
2023/10/20 06:40:58;;;;;;;14.07;7.10;;;11.80;99.90;;;;;;5114666;27;20403;-60
2023/10/20 06:43:25;;;;;;;12.82;6.38;;;11.80;99.90;;;;;;5113404;28;20035;-60
2023/10/20 06:46:00;;;;;;;8.98;5.57;;;11.80;99.90;;;;;;5114206;28;20040;-60
2023/10/20 06:48:28;;;;;;;9.82;6.18;;;11.80;99.90;;;;;;5110783;28;20419;-60
2023/10/20 06:50:56;;;;;;;11.60;6.35;;;11.80;99.90;;;;;;5114629;28;20048;-59
2023/10/20 06:53:23;;;;;;;17.10;6.03;;;11.80;99.90;;;;;;5113948;27;20051;-59
2023/10/20 06:55:51;;;;;;;10.35;6.15;;;11.80;99.90;;;;;;5114595;28;20604;-60
2023/10/20 06:58:38;;;;;;;9.85;6.20;;;11.80;99.90;;;;;;5114195;28;20051;-60
2023/10/20 07:01:08;;;;;;;12.82;6.70;;;11.70;99.90;;;;;;5113854;28;20043;-58
2023/10/20 07:03:35;;;;;;;11.18;6.18;;;11.70;99.90;;;;;;5114051;28;20036;-59
2023/10/20 07:06:07;;;;;;;10.93;6.75;;;11.80;99.90;;;;;;5107272;28;20040;-60
2023/10/20 07:08:34;;;;;;;12.43;6.07;;;11.80;99.90;;;;;;5114045;27;20089;-59
2023/10/20 07:11:02;;;;;;;13.48;6.00;;;11.80;99.90;;;;;;5114091;28;20043;-59
2023/10/20 07:13:34;;;;;;;11.70;6.40;;;11.90;99.90;;;;;;5113309;28;20047;-60
2023/10/20 07:16:00;;;;;;;14.25;7.50;;;11.90;99.90;;;;;;5093902;28;20058;-59
2023/10/20 07:18:27;;;;;;;9.38;6.05;;;11.90;99.90;;;;;;5100121;28;20485;-60
2023/10/20 07:20:55;;;;;;;11.15;6.55;;;11.90;99.90;;;;;;5108587;28;20095;-60
2023/10/20 07:23:24;;;;;;;11.90;5.38;;;11.90;99.90;;;;;;5101168;28;20047;-60
2023/10/20 07:25:52;;;;;;;;;;;12.00;99.90;;;;;;5099003;28;20039;-60
2023/10/20 07:28:20;;;;;;;15.55;6.72;;;12.10;99.90;;;;;;5104956;28;19944;-60
2023/10/20 07:30:47;;;;;;;9.93;6.25;;;12.10;99.90;;;;;;5113761;28;20104;-60
2023/10/20 07:33:14;;;;;;;14.00;5.60;;;12.10;99.90;;;;;;5101412;28;20094;-59
2023/10/20 07:35:42;;;;;;;8.13;5.15;;;12.20;99.90;;;;;;5111682;28;20043;-60
2023/10/20 07:38:09;;;;;;;8.77;5.68;;;12.20;99.90;;;;;;5110882;28;20040;-59
2023/10/20 07:40:37;;;;;;;10.50;6.90;;;12.20;99.90;;;;;;5096396;28;20431;-60
2023/10/20 07:43:06;;;;;;;11.73;6.93;;;12.20;99.90;;;;;;5105681;28;20043;-59
2023/10/20 07:45:43;;;;;;;14.48;6.80;;;12.20;99.90;;;;;;5098040;28;20040;-60
2023/10/20 07:48:10;;;;;;;11.00;7.05;;;12.30;99.90;;;;;;5096030;28;20044;-58
2023/10/20 07:50:38;;;;;;;11.48;6.53;;;12.30;99.90;;;;;;5112205;28;20039;-60
2023/10/20 07:53:05;;;;;;;9.88;5.82;;;12.30;99.90;;;;;;5107118;28;20075;-60
2023/10/20 07:55:32;;;;;;;;;;;12.30;99.90;;;;;;5109144;28;20043;-60
2023/10/20 07:57:58;;;;;;;8.77;6.03;;;12.40;99.90;;;;;;5102737;28;19919;-59
2023/10/20 08:00:25;;;;;;;10.10;6.65;;;12.40;99.90;;;;;;5110605;28;20122;-59
2023/10/20 08:02:52;;;;;;;12.77;7.32;;;12.40;99.90;;;;;;5112257;28;20032;-60
2023/10/20 08:05:24;;;;;;;11.27;6.80;;;12.40;99.90;;;;;;5111562;28;20035;-60
2023/10/20 08:07:53;;;;;;;12.90;6.60;;;12.40;99.90;;;;;;5112375;28;20032;-60
2023/10/20 08:10:21;;;;;;;;;;;12.40;99.90;;;;;;5107807;28;20061;-59
2023/10/20 08:12:48;;;;;;;;;;;12.40;99.90;;;;;;5112478;28;19969;-59
2023/10/20 08:15:16;;;;;;;11.10;5.68;;;12.50;99.90;;;;;;5102025;28;20372;-60
2023/10/20 08:17:44;;;;;;;;;;;12.50;99.90;;;;;;5101509;28;20052;-60
2023/10/20 08:20:12;;;;;;;11.15;5.60;;;12.50;99.90;;;;;;5100599;28;20399;-60
2023/10/20 08:22:39;;;;;;;10.80;6.22;;;12.60;99.90;;;;;;5104183;28;20504;-60
2023/10/20 08:25:08;;;;;;;17.85;6.00;;;12.70;99.90;;;;;;5102081;28;20044;-60
2023/10/20 08:27:36;;;;;;;9.43;6.47;;;12.80;99.90;;;;;;5098161;28;20055;-59
2023/10/20 08:30:04;;;;;;;12.75;7.07;;;13.00;99.90;;;;;;5101597;28;20050;-60
2023/10/20 08:32:31;;;;;;;14.18;6.20;;;13.10;99.90;;;;;;5100860;28;20044;-59
2023/10/20 08:34:58;;;;;;;12.48;5.47;;;13.30;99.90;;;;;;5103605;28;20046;-60
2023/10/20 08:37:25;;;;;;;12.52;6.68;;;13.40;99.90;;;;;;5098833;28;20480;-61
2023/10/20 08:39:54;;;;;;;10.55;6.28;;;13.60;99.90;;;;;;5102514;28;20040;-60
2023/10/20 08:42:21;;;;;;;14.02;5.60;;;13.70;99.90;;;;;;5100751;28;20551;-59
2023/10/20 08:44:49;;;;;;;17.00;6.00;;;13.80;99.90;;;;;;5101276;28;20055;-59
2023/10/20 08:47:17;;;;;;;10.30;6.65;;;13.80;99.90;;;;;;5097499;28;20451;-58
2023/10/20 08:49:45;;;;;;;;;;;13.80;99.90;;;;;;5107059;28;20145;-59
2023/10/20 08:52:13;;;;;;;9.38;5.10;;;13.80;99.90;;;;;;5106119;28;19920;-58
2023/10/20 08:54:41;;;;;;;9.85;5.40;;;13.80;99.90;;;;;;5111147;28;20046;-58
2023/10/20 08:57:08;;;;;;;10.38;5.53;;;13.90;99.90;;;;;;5106798;28;20040;-59
2023/10/20 08:59:35;;;;;;;;;;;14.00;99.90;;;;;;5110411;28;20047;-59
2023/10/20 09:02:03;;;;;;;10.65;6.40;;;14.00;99.90;;;;;;5111400;28;19919;-59
2023/10/20 09:04:31;;;;;;;11.45;5.38;;;14.20;99.90;;;;;;5107501;28;20040;-59
2023/10/20 09:07:00;;;;;;;;;;;14.30;99.90;;;;;;5112048;28;20055;-59
2023/10/20 09:09:29;;;;;;;15.80;9.05;;;14.50;99.90;;;;;;5111162;28;19920;-58
2023/10/20 09:11:56;;;;;;;10.93;7.40;;;14.70;99.90;;;;;;5111761;28;20039;-58
2023/10/20 09:14:25;;;;;;;14.05;7.18;;;14.90;99.90;;;;;;5106160;28;20553;-58
2023/10/20 09:16:55;;;;;;;14.90;7.00;;;15.10;99.90;;;;;;5103184;28;20067;-58
2023/10/20 09:19:21;;;;;;;11.63;6.43;;;15.30;99.90;;;;;;5110979;28;20048;-58
2023/10/20 09:21:48;;;;;;;18.20;7.32;;;15.30;99.90;;;;;;5111525;28;20038;-59
2023/10/20 09:24:17;;;;;;;14.73;6.30;;;15.50;99.90;;;;;;5105737;28;20042;-60
2023/10/20 09:26:44;;;;;;;10.73;6.22;;;15.70;99.90;;;;;;5111024;28;20483;-59
2023/10/20 09:29:13;;;;;;;14.13;6.10;;;15.90;99.90;;;;;;5109916;28;20047;-57
2023/10/20 09:31:40;;;;;;;9.30;5.57;;;16.00;99.90;;;;;;5109295;28;20081;-58
2023/10/20 09:34:07;;;;;;;9.20;4.57;;;16.20;99.90;;;;;;5111282;28;20538;-59
2023/10/20 09:36:36;;;;;;;12.80;4.68;;;16.30;99.90;;;;;;5110821;28;20493;-59
2023/10/20 09:39:08;;;;;;;16.40;4.68;;;16.30;99.90;;;;;;5111156;28;20470;-60
2023/10/20 09:41:42;;;;;;;8.27;4.65;;;16.40;99.90;;;;;;5105527;28;20090;-60
2023/10/20 09:44:13;;;;;;;9.25;4.57;;;16.50;99.90;;;;;;5109773;28;20032;-59
2023/10/20 09:47:20;;;;;;;12.98;5.32;;;16.70;99.90;;;;;;5110421;28;20075;-59
2023/10/20 09:49:48;;;;;;;11.73;5.13;;;16.80;99.90;;;;;;5102749;28;20052;-59
2023/10/20 09:52:16;;;;;;;8.68;4.90;;;16.80;99.90;;;;;;5111212;28;20040;-59
2023/10/20 09:54:43;;;;;;;6.97;5.03;;;17.00;99.90;;;;;;5110565;28;20043;-59
2023/10/20 09:57:12;;;;;;;8.57;5.60;;;17.10;99.90;;;;;;5111126;28;20391;-58
2023/10/20 09:59:39;;;;;;;7.70;5.13;;;17.20;99.90;;;;;;5103779;28;20048;-58
2023/10/20 10:02:06;;;;;;;;;;;17.50;99.90;;;;;;5111658;28;20040;-59
2023/10/20 10:04:37;;;;;;;8.27;4.97;;;17.60;99.90;;;;;;5110618;28;19927;-59
2023/10/20 10:07:07;;;;;;;13.43;5.90;;;17.60;99.90;;;;;;5102034;28;20493;-58
2023/10/20 10:09:52;;;;;;;16.63;5.95;;;17.60;99.90;;;;;;5107775;28;20399;-59
2023/10/20 10:12:22;;;;;;;10.93;5.22;;;17.60;99.90;;;;;;5110880;28;20122;-57
2023/10/20 10:15:12;;;;;;;11.07;4.60;;;17.50;99.90;;;;;;5109053;28;20123;-58
2023/10/20 10:17:46;;;;;;;7.07;4.05;;;17.50;99.90;;;;;;5098843;28;20056;-58
2023/10/20 10:20:23;;;;;;;9.43;4.70;;;17.60;99.90;;;;;;5108426;28;20036;-58
2023/10/20 10:23:00;;;;;;;7.07;4.63;;;17.70;99.90;;;;;;5112431;28;20043;-58
2023/10/20 10:25:39;;;;;;;7.18;4.15;;;17.50;99.90;;;;;;5110471;28;20047;-58
2023/10/20 10:28:09;;;;;;;11.10;4.60;;;17.60;99.90;;;;;;5107309;28;20423;-57
2023/10/20 10:30:37;;;;;;;8.27;4.55;;;17.70;99.90;;;;;;5114379;28;20069;-57
2023/10/20 10:33:08;;;;;;;11.50;5.25;;;17.80;99.90;;;;;;5105929;28;20040;-58
2023/10/20 10:35:36;;;;;;;10.18;5.30;;;18.00;99.90;;;;;;5113975;28;20485;-57
2023/10/20 10:38:03;;;;;;;8.25;5.07;;;18.00;99.90;;;;;;5114286;28;20385;-59
2023/10/20 10:40:31;;;;;;;;;;;18.20;99.90;;;;;;5101696;28;20047;-59
2023/10/20 10:42:59;;;;;;;9.13;6.07;;;18.40;99.90;;;;;;5105587;28;19920;-59
2023/10/20 10:45:30;;;;;;;12.43;6.35;;;18.60;99.90;;;;;;5113920;28;20039;-58
2023/10/20 10:48:07;;;;;;;8.82;5.03;;;18.70;99.90;;;;;;5112027;28;20032;-58
2023/10/20 10:50:40;;;;;;;8.52;4.88;;;18.70;99.90;;;;;;5105256;28;20043;-59
2023/10/20 10:53:07;;;;;;;9.20;4.57;;;18.70;99.90;;;;;;5113844;28;20046;-59
2023/10/20 10:55:35;;;;;;;12.63;5.25;;;18.80;99.90;;;;;;5112604;28;20040;-59
2023/10/20 10:58:10;;;;;;;13.57;5.07;;;18.80;99.90;;;;;;5112131;28;20071;-58
2023/10/20 11:00:38;;;;;;;15.05;5.78;;;19.00;99.90;;;;;;5113728;28;20042;-59
2023/10/20 11:03:06;;;;;;;12.52;4.90;;;18.90;99.90;;;;;;5114155;28;20134;-59
2023/10/20 11:05:34;;;;;;;11.05;4.88;;;19.10;99.90;;;;;;5104952;27;20036;-59
2023/10/20 11:08:07;;;;;;;8.77;4.60;;;19.30;99.90;;;;;;5113615;28;20040;-60
2023/10/20 11:10:36;;;;;;;8.13;4.45;;;19.50;99.90;;;;;;5114005;28;20035;-58
2023/10/20 11:13:08;;;;;;;6.43;3.95;;;19.70;99.90;;;;;;5108945;28;20062;-58
2023/10/20 11:15:36;;;;;;;11.35;4.15;;;19.80;99.90;;;;;;5108250;28;20035;-59
2023/10/20 11:18:05;;;;;;;11.13;4.03;;;20.30;99.90;;;;;;5104002;28;20036;-59
2023/10/20 11:20:41;;;;;;;7.70;3.65;;;20.60;99.90;;;;;;5112894;27;20035;-59
2023/10/20 11:23:09;;;;;;;9.95;3.90;;;20.80;99.90;;;;;;5113352;28;20054;-58
2023/10/20 11:25:36;;;;;;;6.57;2.65;;;21.00;99.90;;;;;;5111101;28;20038;-59
2023/10/20 11:28:04;;;;;;;7.68;2.53;;;21.30;99.90;;;;;;5112273;28;20042;-58
2023/10/20 11:30:32;;;;;;;;;;;21.70;99.90;;;;;;5106417;28;20054;-59
2023/10/20 11:32:59;;;;;;;2.28;1.33;;;21.90;99.90;;;;;;5112772;28;19927;-58
2023/10/20 11:35:26;;;;;;;5.28;1.60;;;21.60;99.90;;;;;;5112245;28;20036;-57
2023/10/20 11:37:58;;;;;;;3.17;1.63;;;21.50;99.90;;;;;;5111694;28;20045;-59
2023/10/20 11:40:28;;;;;;;13.48;1.48;;;21.40;99.90;;;;;;5107305;28;20039;-59
2023/10/20 11:42:56;;;;;;;5.60;1.27;;;21.60;99.90;;;;;;5112478;28;20122;-57
2023/10/20 11:45:23;;;;;;;2.72;1.30;;;22.00;99.90;;;;;;5113004;28;20039;-59
2023/10/20 11:47:51;;;;;;;5.22;1.70;;;22.40;99.90;;;;;;5097512;28;20105;-59
2023/10/20 11:50:19;;;;;;;2.22;1.25;;;23.00;99.90;;;;;;5112838;28;20131;-58
2023/10/20 11:52:47;;;;;;;5.38;2.13;;;23.30;99.90;;;;;;5112269;28;20089;-59
2023/10/20 11:55:14;;;;;;;3.78;1.67;;;23.40;99.90;;;;;;5112895;28;20401;-60
2023/10/20 12:05:55;;;;;;;4.72;1.50;;;23.30;99.90;;;;;;5051915;28;20025;-59
2023/10/20 12:08:23;;;;;;;4.65;1.65;;;23.40;99.90;;;;;;5032402;28;20113;-59
2023/10/20 12:10:50;;;;;;;5.43;1.95;;;23.40;99.90;;;;;;5031199;28;20406;-58
2023/10/20 12:13:18;;;;;;;3.47;1.60;;;23.60;99.90;;;;;;5030710;28;20052;-59
2023/10/20 12:15:44;;;;;;;2.22;1.58;;;23.70;99.90;;;;;;5026318;28;20054;-60
2023/10/20 12:18:11;;;;;;;5.50;1.60;;;23.60;99.90;;;;;;5031862;28;20037;-60
2023/10/20 12:20:38;;;;;;;;;;;23.50;99.90;;;;;;5031854;28;20065;-59
2023/10/20 12:23:05;;;;;;;6.53;1.67;;;23.20;99.90;;;;;;5031669;28;19921;-60
2023/10/20 12:25:33;;;;;;;11.10;3.08;;;23.20;99.90;;;;;;5026002;28;20041;-59
2023/10/20 12:28:00;;;;;;;4.03;1.70;;;23.30;99.90;;;;;;5031740;28;20624;-59
2023/10/20 12:30:27;;;;;;;4.35;1.70;;;23.50;99.90;;;;;;5031469;28;20041;-60
2023/10/20 12:32:54;;;;;;;8.48;2.15;;;23.90;99.90;;;;;;5027393;28;20376;-60
2023/10/20 12:35:21;;;;;;;3.20;1.65;;;24.00;99.90;;;;;;5012598;28;20049;-59
2023/10/20 12:37:48;;;;;;;7.15;1.65;;;24.20;99.90;;;;;;5031374;28;20073;-58
2023/10/20 12:40:15;;;;;;;4.38;1.85;;;24.30;99.90;;;;;;5031119;28;20040;-56
2023/10/20 12:42:43;;;;;;;8.60;1.00;;;24.30;99.10;;;;;;5025274;28;20049;-59
2023/10/20 12:45:10;;;;;;;3.83;0.60;;;24.20;98.90;;;;;;5031344;28;20044;-59
2023/10/20 12:47:37;;;;;;;8.50;0.70;;;24.20;97.60;;;;;;5031181;28;20038;-58
2023/10/20 12:50:06;;;;;;;2.55;0.50;;;24.20;94.30;;;;;;5031340;28;20056;-59
2023/10/20 12:52:33;;;;;;;2.35;0.50;;;24.30;94.20;;;;;;5030090;28;20041;-60
2023/10/20 12:55:00;;;;;;;3.60;0.85;;;24.20;94.90;;;;;;5031354;28;20041;-59
2023/10/20 12:57:27;;;;;;;;;;;24.40;93.40;;;;;;5031158;28;20414;-59
2023/10/20 12:59:53;;;;;;;6.35;0.60;;;24.50;92.80;;;;;;5031212;28;19927;-59
2023/10/20 13:02:20;;;;;;;3.28;0.50;;;24.50;91.10;;;;;;5030401;28;20398;-59
2023/10/20 13:04:47;;;;;;;1.48;0.50;;;24.60;90.80;;;;;;5031041;28;20041;-57
2023/10/20 13:07:14;;;;;;;3.95;0.63;;;24.60;90.40;;;;;;5025294;28;20034;-59
2023/10/20 13:09:41;;;;;;;0.80;0.30;;;24.60;88.80;;;;;;5030696;28;20045;-59
2023/10/20 13:12:07;;;;;;;;;;;24.80;89.30;;;;;;5030419;28;20049;-59
2023/10/20 13:14:36;;;;;;;4.13;0.60;;;24.80;89.70;;;;;;5026791;28;19921;-59
2023/10/20 13:17:04;;;;;;;3.70;0.47;;;24.60;89.50;;;;;;5026401;28;20045;-58
2023/10/20 13:19:32;;;;;;;5.05;0.43;;;24.50;90.00;;;;;;5030466;28;20096;-59
2023/10/20 13:22:00;;;;;;;1.35;0.28;;;24.60;88.20;;;;;;5029982;28;20116;-59
2023/10/20 13:24:27;;;;;;;0.30;0.20;;;24.70;86.00;;;;;;5030705;28;20029;-59
2023/10/20 13:26:53;;;;;;;;;;;24.70;84.80;;;;;;5031186;28;20037;-59
2023/10/20 13:29:20;;;;;;;2.28;0.30;;;24.80;85.40;;;;;;5030859;28;19978;-59
2023/10/20 13:31:47;;;;;;;0.82;0.40;;;24.80;83.00;;;;;;5030926;28;20099;-59
2023/10/20 13:34:14;;;;;;;2.03;0.38;;;25.00;83.20;;;;;;5028098;28;20532;-59